createdAt,value
2023-02-22T00:00:50.044Z,5.40
2023-02-22T00:02:54.694Z,4.40
2023-02-22T00:04:56.771Z,5.25
2023-02-22T00:07:01.372Z,7.68
2023-02-22T00:09:03.621Z,7.15
2023-02-22T00:11:11.433Z,6.07
2023-02-22T00:13:14.600Z,5.40
2023-02-22T00:15:37.107Z,5.63
2023-02-22T00:17:39.278Z,5.88
2023-02-22T00:19:41.311Z,5.28
2023-02-22T00:21:44.914Z,5.35
2023-02-22T00:23:47.866Z,4.78
2023-02-22T00:25:50.752Z,5.05
2023-02-22T00:27:53.096Z,5.65
2023-02-22T00:29:56.613Z,4.82
2023-02-22T00:31:59.184Z,5.20
2023-02-22T00:36:03.851Z,4.63
2023-02-22T00:38:05.963Z,5.50
2023-02-22T00:40:12.243Z,4.95
2023-02-22T00:42:15.007Z,5.18
2023-02-22T00:44:17.155Z,5.18
2023-02-22T00:46:19.378Z,5.28
2023-02-22T00:48:21.527Z,4.75
2023-02-22T00:50:24.990Z,4.93
2023-02-22T00:52:28.157Z,6.00
2023-02-22T00:54:30.758Z,5.75
2023-02-22T00:56:36.226Z,4.80
2023-02-22T00:58:38.266Z,4.68
2023-02-22T01:00:41.788Z,5.03
2023-02-22T01:02:44.000Z,5.60
2023-02-22T01:04:46.297Z,4.60
2023-02-22T01:06:48.486Z,4.15
2023-02-22T01:08:50.638Z,4.60
2023-02-22T01:10:52.799Z,4.18
2023-02-22T01:12:55.115Z,5.35
2023-02-22T01:14:58.314Z,4.50
2023-02-22T01:17:00.390Z,4.72
2023-02-22T01:19:02.633Z,4.22
2023-02-22T01:21:05.279Z,4.65
2023-02-22T01:25:11.952Z,4.68
2023-02-22T01:27:14.161Z,4.95
2023-02-22T01:29:16.793Z,4.65
2023-02-22T01:33:21.346Z,4.47
2023-02-22T01:35:28.426Z,4.80
2023-02-22T01:37:31.862Z,5.45
2023-02-22T01:39:34.212Z,4.65
2023-02-22T01:41:37.298Z,4.22
2023-02-22T01:43:39.398Z,4.55
2023-02-22T01:46:03.349Z,4.35
2023-02-22T01:48:23.116Z,4.93
2023-02-22T01:50:25.250Z,4.40
2023-02-22T01:52:27.334Z,5.00
2023-02-22T01:54:42.296Z,4.90
2023-02-22T01:57:23.328Z,5.25
2023-02-22T01:59:25.482Z,5.10
2023-02-22T02:01:27.701Z,4.80
2023-02-22T02:03:33.296Z,4.30
2023-02-22T02:05:35.382Z,5.30
2023-02-22T02:07:37.540Z,5.20
2023-02-22T02:09:48.592Z,5.10
2023-02-22T02:11:51.079Z,5.00
2023-02-22T02:13:55.252Z,4.18
2023-02-22T02:15:57.444Z,4.93
2023-02-22T02:18:01.683Z,4.07
2023-02-22T02:20:11.993Z,4.82
2023-02-22T02:22:32.286Z,4.47
2023-02-22T02:25:24.263Z,5.03
2023-02-22T02:27:28.706Z,4.47
2023-02-22T02:30:09.793Z,3.85
2023-02-22T02:32:44.692Z,4.13
2023-02-22T02:35:06.253Z,4.50
2023-02-22T02:37:17.268Z,4.60
2023-02-22T02:39:31.196Z,4.25
2023-02-22T02:41:52.075Z,4.33
2023-02-22T02:44:35.730Z,4.28
2023-02-22T02:47:22.628Z,4.93
2023-02-22T02:49:33.065Z,4.22
2023-02-22T02:51:40.236Z,4.28
2023-02-22T02:53:45.534Z,4.43
2023-02-22T02:55:47.694Z,4.72
2023-02-22T02:57:49.742Z,4.93
2023-02-22T02:59:51.764Z,4.72
2023-02-22T03:02:15.041Z,4.38
2023-02-22T03:07:11.181Z,4.22
2023-02-22T03:09:50.808Z,5.35
2023-02-22T03:12:21.704Z,5.47
2023-02-22T03:15:18.276Z,5.47
2023-02-22T03:18:03.108Z,6.38
2023-02-22T03:20:32.396Z,7.15
2023-02-22T03:22:44.269Z,6.53
2023-02-22T03:24:53.119Z,6.13
2023-02-22T03:27:04.510Z,5.47
2023-02-22T03:29:07.005Z,6.47
2023-02-22T03:31:15.216Z,5.95
2023-02-22T03:33:36.763Z,6.25
2023-02-22T03:35:44.661Z,5.72
2023-02-22T03:37:48.246Z,5.97
2023-02-22T03:39:51.887Z,5.90
2023-02-22T03:41:54.015Z,5.90
2023-02-22T03:44:03.988Z,5.35
2023-02-22T03:46:06.660Z,4.95
2023-02-22T03:48:20.937Z,5.85
2023-02-22T03:50:26.878Z,5.93
2023-02-22T03:52:28.946Z,5.47
2023-02-22T03:54:31.260Z,5.93
2023-02-22T03:56:37.991Z,5.60
2023-02-22T03:58:40.710Z,7.40
2023-02-22T04:00:44.632Z,6.63
2023-02-22T04:02:46.871Z,7.55
2023-02-22T04:04:48.951Z,6.57
2023-02-22T04:06:51.655Z,7.20
2023-02-22T04:10:55.929Z,6.70
2023-02-22T04:12:58.967Z,7.50
2023-02-22T04:15:01.641Z,6.88
2023-02-22T04:19:06.485Z,5.87
2023-02-22T04:23:11.462Z,8.57
2023-02-22T04:25:14.650Z,8.52
2023-02-22T04:27:16.722Z,8.43
2023-02-22T04:29:18.730Z,11.15
2023-02-22T04:31:20.884Z,11.73
2023-02-22T04:33:23.011Z,12.05
2023-02-22T04:35:25.075Z,9.55
2023-02-22T04:37:27.173Z,10.00
2023-02-22T04:39:29.317Z,9.63
2023-02-22T04:41:31.657Z,13.68
2023-02-22T04:43:33.793Z,10.55
2023-02-22T04:45:36.163Z,12.10
2023-02-22T04:47:38.339Z,12.82
2023-02-22T04:49:40.483Z,13.90
2023-02-22T04:51:42.641Z,19.17
2023-02-22T04:53:44.705Z,14.32
2023-02-22T04:55:47.080Z,12.25
2023-02-22T04:57:49.113Z,11.77
2023-02-22T04:59:51.366Z,12.68
2023-02-22T05:01:53.551Z,10.45
2023-02-22T05:03:55.600Z,9.50
2023-02-22T05:05:57.753Z,9.63
2023-02-22T05:07:59.856Z,9.45
2023-02-22T05:10:03.109Z,7.85
2023-02-22T05:12:05.628Z,6.68
2023-02-22T05:14:07.963Z,7.60
2023-02-22T05:16:10.200Z,8.07
2023-02-22T05:18:12.261Z,8.07
2023-02-22T05:20:35.361Z,7.30
2023-02-22T05:22:37.408Z,7.25
2023-02-22T05:24:39.463Z,6.78
2023-02-22T05:26:44.707Z,6.75
2023-02-22T05:28:46.755Z,6.65
2023-02-22T05:30:48.797Z,6.78
2023-02-22T05:32:51.891Z,7.65
2023-02-22T05:34:53.948Z,6.57
2023-02-22T05:36:56.001Z,6.53
2023-02-22T05:38:58.128Z,7.10
2023-02-22T05:41:00.664Z,8.70
2023-02-22T05:43:02.977Z,8.55
2023-02-22T05:45:05.693Z,6.82
2023-02-22T05:49:09.772Z,8.57
2023-02-22T05:51:12.179Z,8.75
2023-02-22T05:53:14.474Z,9.23
2023-02-22T05:55:19.317Z,8.80
2023-02-22T05:57:21.422Z,8.30
2023-02-22T05:59:23.577Z,7.32
2023-02-22T06:03:28.526Z,9.07
2023-02-22T06:05:31.132Z,9.00
2023-02-22T06:09:35.203Z,9.00
2023-02-22T06:11:37.450Z,8.23
2023-02-22T06:13:39.826Z,7.40
2023-02-22T06:15:41.982Z,7.85
2023-02-22T06:17:44.284Z,6.28
2023-02-22T06:19:46.323Z,7.22
2023-02-22T06:21:56.057Z,5.90
2023-02-22T06:23:58.133Z,6.47
2023-02-22T06:26:00.190Z,7.30
2023-02-22T06:28:02.514Z,7.82
2023-02-22T06:30:05.505Z,7.15
2023-02-22T06:32:07.660Z,7.80
2023-02-22T06:34:13.599Z,7.55
2023-02-22T06:36:15.643Z,7.50
2023-02-22T06:38:24.658Z,7.28
2023-02-22T06:40:29.564Z,6.78
2023-02-22T06:42:31.721Z,7.32
2023-02-22T06:44:33.872Z,6.07
2023-02-22T06:46:36.161Z,7.10
2023-02-22T06:48:40.229Z,10.10
2023-02-22T06:50:42.293Z,10.27
2023-02-22T06:52:45.518Z,10.38
2023-02-22T06:54:47.982Z,10.80
2023-02-22T06:56:50.043Z,11.07
2023-02-22T06:58:52.193Z,10.75
2023-02-22T07:00:54.539Z,10.25
2023-02-22T07:02:56.854Z,9.70
2023-02-22T07:05:00.438Z,8.98
2023-02-22T07:07:02.491Z,9.93
2023-02-22T07:09:04.672Z,11.07
2023-02-22T07:11:06.933Z,11.27
2023-02-22T07:13:09.384Z,11.02
2023-02-22T07:15:11.417Z,12.02
2023-02-22T07:17:13.529Z,15.05
2023-02-22T07:19:15.646Z,12.50
2023-02-22T07:21:19.276Z,12.30
2023-02-22T07:23:21.777Z,13.07
2023-02-22T07:25:24.285Z,14.45
2023-02-22T07:27:26.418Z,17.60
2023-02-22T07:29:28.602Z,21.50
2023-02-22T07:31:38.972Z,19.88
2023-02-22T07:33:41.084Z,16.48
2023-02-22T07:35:48.168Z,12.60
2023-02-22T07:37:50.344Z,13.07
2023-02-22T07:39:52.402Z,11.82
2023-02-22T07:41:54.626Z,11.48
2023-02-22T07:43:56.742Z,11.32
2023-02-22T07:46:00.315Z,9.90
2023-02-22T07:48:03.904Z,9.88
2023-02-22T07:50:06.324Z,10.20
2023-02-22T07:52:08.416Z,10.45
2023-02-22T07:54:10.533Z,12.73
2023-02-22T07:56:12.709Z,15.13
2023-02-22T07:58:15.697Z,16.77
2023-02-22T08:00:24.717Z,18.65
2023-02-22T08:02:27.062Z,21.52
2023-02-22T08:04:29.222Z,19.73
2023-02-22T08:06:32.179Z,15.00
2023-02-22T08:08:34.674Z,13.10
2023-02-22T08:10:36.915Z,11.15
2023-02-22T08:12:39.062Z,11.05
2023-02-22T08:14:41.160Z,10.65
2023-02-22T08:16:43.290Z,10.18
2023-02-22T08:18:45.511Z,10.57
2023-02-22T08:20:49.497Z,10.02
2023-02-22T08:22:51.817Z,10.25
2023-02-22T08:24:54.825Z,10.40
2023-02-22T08:28:59.022Z,9.30
2023-02-22T08:31:01.567Z,9.55
2023-02-22T08:33:04.336Z,8.70
2023-02-22T08:35:07.075Z,8.93
2023-02-22T08:37:09.243Z,9.15
2023-02-22T08:39:13.897Z,10.20
2023-02-22T08:41:16.394Z,10.32
2023-02-22T08:43:19.723Z,11.55
2023-02-22T08:45:21.858Z,8.50
2023-02-22T08:47:23.916Z,8.55
2023-02-22T08:49:26.049Z,10.35
2023-02-22T08:51:28.151Z,10.32
2023-02-22T08:53:32.391Z,8.55
2023-02-22T08:55:38.057Z,7.03
2023-02-22T08:57:40.125Z,6.35
2023-02-22T08:59:42.898Z,7.28
2023-02-22T09:01:45.220Z,6.50
2023-02-22T09:03:49.111Z,6.68
2023-02-22T09:05:51.354Z,6.57
2023-02-22T09:07:55.630Z,7.00
2023-02-22T09:09:57.700Z,6.78
2023-02-22T09:11:59.789Z,7.45
2023-02-22T09:14:02.069Z,6.03
2023-02-22T09:16:04.514Z,7.15
2023-02-22T09:18:08.554Z,6.50
2023-02-22T09:20:12.517Z,6.70
2023-02-22T09:22:14.578Z,5.85
2023-02-22T09:24:16.637Z,6.72
2023-02-22T09:26:18.786Z,5.80
2023-02-22T09:28:22.505Z,5.28
2023-02-22T09:30:36.707Z,3.53
2023-02-22T09:32:42.819Z,3.40
2023-02-22T09:34:47.646Z,3.33
2023-02-22T09:36:51.275Z,2.78
2023-02-22T09:38:57.238Z,2.97
2023-02-22T09:41:16.502Z,3.05
2023-02-22T09:43:49.463Z,3.28
2023-02-22T09:46:13.601Z,3.17
2023-02-22T09:48:21.999Z,3.13
2023-02-22T09:50:42.343Z,3.67
2023-02-22T09:53:07.472Z,3.28
2023-02-22T09:55:34.296Z,3.60
2023-02-22T09:57:43.404Z,4.00
2023-02-22T10:00:14.436Z,3.40
2023-02-22T10:02:24.667Z,3.22
2023-02-22T10:04:41.455Z,3.90
2023-02-22T10:06:51.109Z,3.80
2023-02-22T10:08:58.402Z,2.88
2023-02-22T10:11:12.242Z,3.33
2023-02-22T10:13:25.361Z,4.20
2023-02-22T10:15:34.969Z,3.72
2023-02-22T10:17:52.860Z,3.08
2023-02-22T10:20:17.465Z,3.50
2023-02-22T10:22:51.614Z,3.10
2023-02-22T10:25:19.333Z,2.95
2023-02-22T10:27:28.777Z,2.60
2023-02-22T10:29:51.429Z,2.80
2023-02-22T10:32:05.073Z,2.60
2023-02-22T10:34:21.372Z,2.72
2023-02-22T10:36:23.450Z,2.75
2023-02-22T10:38:30.830Z,2.55
2023-02-22T10:40:32.869Z,2.15
2023-02-22T10:42:35.518Z,2.60
2023-02-22T10:44:38.770Z,2.70
2023-02-22T10:46:42.050Z,2.17
2023-02-22T10:48:46.041Z,3.30
2023-02-22T10:50:48.183Z,3.10
2023-02-22T10:52:50.199Z,3.25
2023-02-22T10:54:52.465Z,2.95
2023-02-22T10:56:55.885Z,2.70
2023-02-22T10:59:02.559Z,2.30
2023-02-22T11:01:37.848Z,2.30
2023-02-22T11:03:39.933Z,3.10
2023-02-22T11:05:42.060Z,2.70
2023-02-22T11:07:44.110Z,2.60
2023-02-22T11:10:06.621Z,3.80
2023-02-22T11:12:18.513Z,3.42
2023-02-22T11:14:30.423Z,3.00
2023-02-22T11:16:52.751Z,2.80
2023-02-22T11:19:15.956Z,3.40
2023-02-22T11:23:24.893Z,3.78
2023-02-22T11:25:30.330Z,4.07
2023-02-22T11:27:41.289Z,4.70
2023-02-22T11:29:43.882Z,3.60
2023-02-22T11:31:46.561Z,3.03
2023-02-22T11:36:04.898Z,4.38
2023-02-22T11:38:53.080Z,3.80
2023-02-22T11:41:23.065Z,3.30
2023-02-22T11:43:25.157Z,2.83
2023-02-22T11:45:27.661Z,3.03
2023-02-22T11:47:29.707Z,3.00
2023-02-22T11:49:39.365Z,3.05
2023-02-22T11:51:53.870Z,3.53
2023-02-22T11:54:25.423Z,3.08
2023-02-22T11:56:47.165Z,2.67
2023-02-22T11:59:15.593Z,2.00
2023-02-22T12:01:34.596Z,2.35
2023-02-22T12:03:58.557Z,2.33
2023-02-22T12:06:24.829Z,2.30
2023-02-22T12:08:47.348Z,3.10
2023-02-22T12:10:57.886Z,2.70
2023-02-22T12:13:51.353Z,2.75
2023-02-22T12:16:11.805Z,2.15
2023-02-22T12:18:22.324Z,2.38
2023-02-22T12:20:32.315Z,2.50
2023-02-22T12:22:38.010Z,2.80
2023-02-22T12:25:08.604Z,3.40
2023-02-22T12:27:20.353Z,4.07
2023-02-22T12:29:31.362Z,3.10
2023-02-22T12:31:57.619Z,2.67
2023-02-22T12:34:21.962Z,2.45
2023-02-22T12:36:26.956Z,3.00
2023-02-22T12:38:44.399Z,3.00
2023-02-22T12:41:20.979Z,3.08
2023-02-22T12:43:25.986Z,2.80
2023-02-22T12:45:43.329Z,2.42
2023-02-22T12:47:55.198Z,2.42
2023-02-22T12:50:22.514Z,2.80
2023-02-22T12:52:48.526Z,2.75
2023-02-22T12:55:34.017Z,3.35
2023-02-22T12:58:06.596Z,4.22
2023-02-22T13:00:42.056Z,2.80
2023-02-22T13:02:48.328Z,3.03
2023-02-22T13:04:50.386Z,2.60
2023-02-22T13:07:14.339Z,2.80
2023-02-22T13:09:59.707Z,2.70
2023-02-22T13:12:07.513Z,2.80
2023-02-22T13:14:33.424Z,2.83
2023-02-22T13:17:07.255Z,2.95
2023-02-22T13:19:27.085Z,3.25
2023-02-22T13:21:46.973Z,3.00
2023-02-22T13:24:14.947Z,3.20
2023-02-22T13:26:32.873Z,2.80
2023-02-22T13:28:39.141Z,3.08
2023-02-22T13:30:49.726Z,2.58
2023-02-22T13:33:06.588Z,2.45
2023-02-22T13:35:23.200Z,2.70
2023-02-22T13:38:20.369Z,2.53
2023-02-22T13:40:47.372Z,3.40
2023-02-22T13:43:57.026Z,2.78
2023-02-22T13:46:24.827Z,2.90
2023-02-22T13:48:28.260Z,3.33
2023-02-22T13:51:00.587Z,3.00
2023-02-22T13:53:10.143Z,3.30
2023-02-22T13:55:34.539Z,3.40
2023-02-22T13:57:50.904Z,3.42
2023-02-22T14:00:14.822Z,3.90
2023-02-22T14:02:53.939Z,4.10
2023-02-22T14:04:55.947Z,3.65
2023-02-22T14:07:02.122Z,3.45
2023-02-22T14:09:09.569Z,3.08
2023-02-22T14:11:14.354Z,3.30
2023-02-22T14:13:18.667Z,3.00
2023-02-22T14:15:30.908Z,2.67
2023-02-22T14:17:33.324Z,4.05
2023-02-22T14:19:35.429Z,3.50
2023-02-22T14:21:37.540Z,3.05
2023-02-22T14:23:44.367Z,3.40
2023-02-22T14:25:46.438Z,3.30
2023-02-22T14:27:48.753Z,3.05
2023-02-22T14:30:00.573Z,3.15
2023-02-22T14:32:10.822Z,3.38
2023-02-22T14:34:16.180Z,2.75
2023-02-22T14:36:20.904Z,3.22
2023-02-22T14:38:23.005Z,2.78
2023-02-22T14:40:32.661Z,3.00
2023-02-22T14:42:36.187Z,3.17
2023-02-22T14:44:59.844Z,3.17
2023-02-22T14:47:05.135Z,3.60
2023-02-22T14:49:10.141Z,3.63
2023-02-22T14:51:44.673Z,3.20
2023-02-22T14:53:49.459Z,3.88
2023-02-22T14:56:07.049Z,4.60
2023-02-22T14:58:46.045Z,4.10
2023-02-22T15:00:50.497Z,3.53
2023-02-22T15:02:57.403Z,3.67
2023-02-22T15:05:00.456Z,3.33
2023-02-22T15:07:30.660Z,3.50
2023-02-22T15:09:37.653Z,4.30
2023-02-22T15:11:40.374Z,4.35
2023-02-22T15:13:53.876Z,3.63
2023-02-22T15:16:04.129Z,4.40
2023-02-22T15:18:12.987Z,3.97
2023-02-22T15:20:16.702Z,4.13
2023-02-22T15:22:26.488Z,3.55
2023-02-22T15:24:31.072Z,4.03
2023-02-22T15:26:42.463Z,4.28
2023-02-22T15:28:48.552Z,4.10
2023-02-22T15:30:53.612Z,5.07
2023-02-22T15:33:04.196Z,5.50
2023-02-22T15:35:23.520Z,5.97
2023-02-22T15:37:28.054Z,5.05
2023-02-22T15:39:34.631Z,4.50
2023-02-22T15:42:21.081Z,3.80
2023-02-22T15:44:43.820Z,4.32
2023-02-22T15:47:06.630Z,3.78
2023-02-22T15:49:20.060Z,4.40
2023-02-22T15:51:22.142Z,4.38
2023-02-22T15:53:30.410Z,4.13
2023-02-22T15:55:36.277Z,4.15
2023-02-22T15:57:38.408Z,3.83
2023-02-22T15:59:47.545Z,3.90
2023-02-22T16:01:51.631Z,4.15
2023-02-22T16:03:56.748Z,4.05
2023-02-22T16:05:58.860Z,4.57
2023-02-22T16:08:00.976Z,4.18
2023-02-22T16:10:09.192Z,4.10
2023-02-22T16:12:31.766Z,3.80
2023-02-22T16:14:36.438Z,4.28
2023-02-22T16:16:43.291Z,4.13
2023-02-22T16:18:45.389Z,4.13
2023-02-22T16:20:47.671Z,4.10
2023-02-22T16:22:50.050Z,4.18
2023-02-22T16:24:52.812Z,4.32
2023-02-22T16:27:23.740Z,3.78
2023-02-22T16:29:26.575Z,4.18
2023-02-22T16:31:39.582Z,4.20
2023-02-22T16:33:43.512Z,4.10
2023-02-22T16:35:52.165Z,4.60
2023-02-22T16:38:03.382Z,4.00
2023-02-22T16:40:13.997Z,4.25
2023-02-22T16:42:20.155Z,4.30
2023-02-22T16:44:25.181Z,5.00
2023-02-22T16:46:27.275Z,5.00
2023-02-22T16:48:32.774Z,5.43
2023-02-22T16:50:34.910Z,4.72
2023-02-22T16:52:36.970Z,4.15
2023-02-22T16:54:45.685Z,4.90
2023-02-22T16:56:47.753Z,4.50
2023-02-22T16:58:50.765Z,5.35
2023-02-22T17:00:52.802Z,5.07
2023-02-22T17:02:54.870Z,6.55
2023-02-22T17:04:57.271Z,5.43
2023-02-22T17:06:59.336Z,6.30
2023-02-22T17:09:01.622Z,5.90
2023-02-22T17:11:04.206Z,6.43
2023-02-22T17:13:21.280Z,6.32
2023-02-22T17:15:32.568Z,6.22
2023-02-22T17:17:34.698Z,6.82
2023-02-22T17:19:37.690Z,6.22
2023-02-22T17:21:40.299Z,5.97
2023-02-22T17:23:46.031Z,6.72
2023-02-22T17:25:59.682Z,7.40
2023-02-22T17:28:01.793Z,7.50
2023-02-22T17:30:04.892Z,8.30
2023-02-22T17:32:07.358Z,6.95
2023-02-22T17:34:09.498Z,6.57
2023-02-22T17:36:13.334Z,6.38
2023-02-22T17:38:18.564Z,5.93
2023-02-22T17:40:20.776Z,6.03
2023-02-22T17:42:22.844Z,5.63
2023-02-22T17:44:26.339Z,6.22
2023-02-22T17:46:28.548Z,6.10
2023-02-22T17:48:30.658Z,5.95
2023-02-22T17:50:32.716Z,7.18
2023-02-22T17:52:34.871Z,6.35
2023-02-22T17:54:36.895Z,6.80
2023-02-22T17:56:38.966Z,7.32
2023-02-22T17:58:41.450Z,7.70
2023-02-22T18:00:49.021Z,6.85
2023-02-22T18:02:51.930Z,8.15
2023-02-22T18:04:54.056Z,8.77
2023-02-22T18:06:56.108Z,8.25
2023-02-22T18:08:58.963Z,7.65
2023-02-22T18:11:05.298Z,6.28
2023-02-22T18:13:07.345Z,6.28
2023-02-22T18:15:15.102Z,6.65
2023-02-22T18:17:17.248Z,7.13
2023-02-22T18:19:20.990Z,6.00
2023-02-22T18:21:26.867Z,6.00
2023-02-22T18:23:30.927Z,5.18
2023-02-22T18:25:33.400Z,5.35
2023-02-22T18:27:36.572Z,4.90
2023-02-22T18:29:38.698Z,5.20
2023-02-22T18:31:40.822Z,5.65
2023-02-22T18:33:44.120Z,5.00
2023-02-22T18:35:50.039Z,5.18
2023-02-22T18:37:52.054Z,5.78
2023-02-22T18:39:57.742Z,8.10
2023-02-22T18:41:59.935Z,6.57
2023-02-22T18:44:03.341Z,6.60
2023-02-22T18:46:19.692Z,5.78
2023-02-22T18:48:22.051Z,5.25
2023-02-22T18:50:24.119Z,5.03
2023-02-22T18:52:26.262Z,5.40
2023-02-22T18:54:28.500Z,5.93
2023-02-22T18:56:30.715Z,6.32
2023-02-22T18:58:32.944Z,8.02
2023-02-22T19:00:35.292Z,8.60
2023-02-22T19:02:37.549Z,8.80
2023-02-22T19:04:40.007Z,6.15
2023-02-22T19:06:44.860Z,5.60
2023-02-22T19:08:47.156Z,5.80
2023-02-22T19:10:49.784Z,6.35
